createdAt,value
2022-10-11T00:00:20.888Z,56.96
2022-10-11T00:05:44.328Z,58.88
2022-10-11T00:10:57.794Z,61.02
2022-10-11T00:16:00.744Z,65.27
2022-10-11T00:21:10.081Z,55.23
2022-10-11T00:26:12.900Z,56.94
2022-10-11T00:31:16.587Z,58.15
2022-10-11T00:36:19.335Z,61.61
2022-10-11T00:41:22.383Z,65.34
2022-10-11T00:46:28.201Z,57.34
2022-10-11T00:51:40.208Z,56.79
2022-10-11T00:56:46.625Z,59.34
2022-10-11T01:01:49.491Z,63.10
2022-10-11T01:06:53.513Z,64.37
2022-10-11T01:11:59.668Z,55.56
2022-10-11T01:17:20.197Z,57.47
2022-10-11T01:22:42.007Z,60.65
2022-10-11T01:28:10.021Z,65.76
2022-10-11T01:33:28.535Z,56.99
2022-10-11T01:38:43.603Z,56.49
2022-10-11T01:43:48.544Z,59.65
2022-10-11T01:48:54.928Z,65.03
2022-10-11T01:54:49.785Z,58.32
2022-10-11T02:00:12.653Z,57.28
2022-10-11T02:05:51.896Z,59.89
2022-10-11T02:11:27.569Z,65.99
2022-10-11T02:16:42.732Z,57.60
2022-10-11T02:21:52.528Z,57.87
2022-10-11T02:26:59.493Z,61.01
2022-10-11T02:32:02.332Z,67.01
2022-10-11T02:37:29.870Z,60.59
2022-10-11T02:42:40.286Z,57.17
2022-10-11T02:47:44.036Z,60.46
2022-10-11T02:52:46.699Z,66.72
2022-10-11T02:57:49.403Z,63.57
2022-10-11T03:02:52.457Z,57.98
2022-10-11T03:07:56.398Z,59.03
2022-10-11T03:12:59.127Z,65.98
2022-10-11T03:18:01.913Z,60.71
2022-10-11T03:23:04.615Z,56.84
2022-10-11T03:28:07.420Z,60.60
2022-10-11T03:33:10.262Z,66.91
2022-10-11T03:39:06.544Z,59.03
2022-10-11T03:44:09.143Z,60.42
2022-10-11T03:55:27.208Z,57.48
2022-10-11T04:00:29.987Z,60.55
2022-10-11T04:05:32.662Z,66.53
2022-10-11T04:10:49.292Z,60.51
2022-10-11T04:15:51.983Z,57.50
2022-10-11T04:20:54.688Z,62.57
2022-10-11T04:31:20.896Z,57.70
2022-10-11T04:36:28.113Z,62.02
2022-10-11T04:41:38.225Z,64.48
2022-10-11T04:46:41.189Z,57.72
2022-10-11T04:51:44.221Z,58.94
2022-10-11T04:56:46.925Z,66.09
2022-10-11T05:01:49.636Z,59.74
2022-10-11T05:06:52.451Z,58.54
2022-10-11T05:11:55.189Z,63.88
2022-10-11T05:16:58.205Z,63.78
2022-10-11T05:22:00.867Z,57.65
2022-10-11T05:27:03.813Z,59.96
2022-10-11T05:32:06.633Z,65.63
2022-10-11T05:37:09.450Z,58.55
2022-10-11T05:42:12.423Z,59.43
2022-10-11T05:47:15.176Z,65.79
2022-10-11T05:52:21.808Z,59.50
2022-10-11T05:57:24.656Z,58.82
2022-10-11T06:02:28.797Z,64.63
2022-10-11T06:07:39.554Z,61.67
2022-10-11T06:13:14.919Z,57.46
2022-10-11T06:18:48.728Z,63.17
2022-10-11T06:24:03.269Z,62.28
2022-10-11T06:29:06.416Z,56.91
2022-10-11T06:34:09.881Z,61.62
2022-10-11T06:39:13.068Z,63.21
2022-10-11T06:44:16.890Z,56.62
2022-10-11T06:49:23.249Z,60.12
2022-10-11T06:54:26.737Z,64.75
2022-10-11T06:59:29.489Z,58.35
2022-10-11T07:04:33.917Z,58.78
2022-10-11T07:09:36.826Z,63.54
2022-10-11T07:14:39.524Z,61.55
2022-10-11T07:19:42.195Z,57.10
2022-10-11T07:24:44.887Z,59.55
2022-10-11T07:29:48.019Z,63.62
2022-10-11T07:34:51.870Z,56.45
2022-10-11T07:39:54.616Z,57.31
2022-10-11T07:44:57.588Z,58.60
2022-10-11T07:50:00.554Z,59.69
2022-10-11T07:55:24.144Z,50.65
2022-10-11T08:00:27.112Z,44.98
2022-10-11T08:05:32.587Z,42.35
2022-10-11T08:10:39.870Z,40.86
2022-10-11T08:15:48.901Z,43.94
2022-10-11T08:20:55.010Z,48.86
2022-10-11T08:25:58.586Z,52.48
2022-10-11T08:31:01.781Z,54.32
2022-10-11T08:36:07.352Z,52.71
2022-10-11T08:41:28.878Z,51.17
2022-10-11T08:46:35.408Z,49.99
2022-10-11T08:51:45.381Z,49.13
2022-10-11T08:56:49.823Z,46.02
2022-10-11T09:02:16.218Z,47.34
2022-10-11T09:07:40.085Z,50.11
2022-10-11T09:13:04.328Z,52.52
2022-10-11T09:18:26.040Z,53.96
2022-10-11T09:23:43.652Z,54.00
2022-10-11T09:28:46.518Z,54.63
2022-10-11T09:33:52.035Z,54.48
2022-10-11T09:39:01.838Z,55.97
2022-10-11T09:44:09.543Z,56.05
2022-10-11T09:49:16.392Z,55.49
2022-10-11T09:54:32.777Z,56.14
2022-10-11T09:59:43.696Z,53.83
2022-10-11T10:05:08.363Z,55.81
2022-10-11T10:10:42.982Z,54.60
2022-10-11T10:15:48.762Z,53.89
2022-10-11T10:20:55.589Z,55.32
2022-10-11T10:26:16.227Z,54.68
2022-10-11T10:31:30.827Z,54.42
2022-10-11T10:36:44.185Z,55.81
2022-10-11T10:41:48.275Z,55.18
2022-10-11T10:47:07.644Z,54.78
2022-10-11T10:52:41.656Z,55.72
2022-10-11T10:58:35.890Z,54.37
2022-10-11T11:03:52.924Z,54.09
2022-10-11T11:09:29.770Z,54.10
2022-10-11T11:14:46.637Z,55.96
2022-10-11T11:20:15.871Z,55.47
2022-10-11T11:25:44.977Z,55.30
2022-10-11T11:31:07.569Z,54.63
2022-10-11T11:36:29.384Z,54.91
2022-10-11T11:41:40.854Z,54.06
2022-10-11T11:46:57.001Z,54.07
2022-10-11T11:52:00.700Z,52.29
2022-10-11T11:57:31.869Z,52.56
2022-10-11T12:02:43.418Z,53.87
2022-10-11T12:07:54.020Z,52.60
2022-10-11T12:13:02.742Z,52.83
2022-10-11T12:18:15.388Z,51.02
2022-10-11T12:23:30.406Z,52.56
2022-10-11T12:28:42.647Z,51.47
2022-10-11T12:33:52.839Z,52.90
2022-10-11T12:39:20.998Z,54.45
2022-10-11T12:44:30.318Z,54.45
2022-10-11T12:50:21.566Z,54.22
2022-10-11T12:55:40.803Z,55.35
2022-10-11T13:01:03.554Z,52.93
2022-10-11T13:06:20.917Z,53.12
2022-10-11T13:11:29.801Z,54.83
2022-10-11T13:16:50.054Z,55.29
2022-10-11T13:21:57.122Z,56.55
2022-10-11T13:26:59.928Z,57.09
2022-10-11T13:32:18.335Z,57.74
2022-10-11T13:37:23.987Z,58.43
2022-10-11T13:42:37.099Z,58.55
2022-10-11T13:47:40.809Z,58.63
2022-10-11T13:53:00.191Z,58.09
2022-10-11T13:58:23.705Z,57.95
2022-10-11T14:03:43.762Z,57.99
2022-10-11T14:08:58.610Z,57.02
2022-10-11T14:14:40.628Z,57.64
2022-10-11T14:19:45.516Z,56.99
2022-10-11T14:24:50.130Z,56.30
2022-10-11T14:30:20.265Z,56.52
2022-10-11T14:35:18.998Z,55.77
2022-10-11T14:40:31.883Z,56.21
2022-10-11T14:45:34.982Z,56.91
2022-10-11T14:50:43.660Z,57.30
2022-10-11T14:55:46.870Z,57.54
2022-10-11T15:00:49.551Z,56.97
2022-10-11T15:05:52.276Z,56.79
2022-10-11T15:10:55.751Z,56.64
2022-10-11T15:15:59.407Z,56.96
2022-10-11T15:21:02.202Z,57.41
2022-10-11T15:26:06.102Z,57.71
2022-10-11T15:31:11.104Z,57.80
2022-10-11T15:36:17.345Z,58.20
2022-10-11T15:41:21.277Z,58.45
2022-10-11T15:46:24.063Z,58.82
2022-10-11T15:51:27.647Z,58.83
2022-10-11T15:56:33.710Z,59.23
2022-10-11T16:01:36.678Z,59.54
2022-10-11T16:06:41.147Z,59.65
2022-10-11T16:11:43.904Z,60.06
2022-10-11T16:16:46.707Z,60.48
2022-10-11T16:21:49.459Z,60.72
2022-10-11T16:26:52.218Z,60.68
2022-10-11T16:31:54.983Z,60.98
2022-10-11T16:36:57.734Z,61.39
2022-10-11T16:42:00.465Z,61.94
2022-10-11T16:47:03.428Z,67.75
2022-10-11T16:52:06.152Z,59.90
2022-10-11T16:57:10.732Z,54.41
2022-10-11T17:02:32.551Z,56.31
2022-10-11T17:07:36.206Z,57.61
2022-10-11T17:12:38.951Z,58.50
2022-10-11T17:17:41.670Z,59.55
2022-10-11T17:22:44.414Z,60.39
2022-10-11T17:27:47.441Z,61.49
2022-10-11T17:32:54.360Z,69.08
2022-10-11T17:37:57.092Z,62.11
2022-10-11T17:42:59.993Z,55.46
2022-10-11T17:48:04.106Z,57.35
2022-10-11T17:53:06.830Z,59.51
2022-10-11T17:58:11.929Z,60.72
2022-10-11T18:03:14.630Z,61.31
2022-10-11T18:08:17.355Z,69.67
2022-10-11T18:13:20.117Z,63.13
2022-10-11T18:18:22.863Z,56.51
2022-10-11T18:23:25.713Z,58.67
2022-10-11T18:28:28.757Z,60.51
2022-10-11T18:33:31.962Z,62.02
2022-10-11T18:38:37.936Z,68.96
2022-10-11T18:43:41.411Z,62.60
2022-10-11T18:48:46.728Z,56.95
2022-10-11T18:53:49.678Z,59.44
2022-10-11T18:58:55.085Z,60.81
2022-10-11T19:04:00.101Z,67.88
2022-10-11T19:09:12.703Z,63.11
2022-10-11T19:14:17.323Z,56.72
2022-10-11T19:19:24.224Z,59.91
2022-10-11T19:24:29.123Z,64.63
2022-10-11T19:29:33.142Z,62.02
2022-10-11T19:34:35.895Z,56.16
2022-10-11T19:39:40.605Z,59.67
2022-10-11T19:44:43.349Z,62.64
2022-10-11T19:49:46.031Z,66.17
2022-10-11T19:54:48.945Z,58.64
2022-10-11T19:59:51.654Z,55.97
2022-10-11T20:04:54.508Z,60.28
2022-10-11T20:09:57.396Z,62.00
2022-10-11T20:15:00.080Z,67.99
2022-10-11T20:20:02.757Z,62.19
2022-10-11T20:25:06.190Z,56.01
2022-10-11T20:30:10.290Z,58.76
2022-10-11T20:35:13.009Z,61.36
2022-10-11T20:40:15.922Z,67.37
2022-10-11T20:45:18.611Z,61.32
2022-10-11T20:50:23.142Z,55.47
2022-10-11T20:55:26.114Z,58.79
2022-10-11T21:00:28.835Z,61.80
2022-10-11T21:05:31.863Z,67.86
2022-10-11T21:10:34.549Z,61.55
2022-10-11T21:15:37.254Z,55.96
2022-10-11T21:20:41.521Z,58.95
2022-10-11T21:25:44.222Z,61.14
2022-10-11T21:30:47.607Z,68.00
2022-10-11T21:35:50.381Z,62.34
2022-10-11T21:40:58.811Z,56.48
2022-10-11T21:46:10.138Z,58.52
2022-10-11T21:51:16.362Z,61.30
2022-10-11T21:56:19.346Z,67.35
2022-10-11T22:01:22.113Z,61.19
2022-10-11T22:06:24.817Z,56.16
2022-10-11T22:11:27.740Z,59.53
2022-10-11T22:16:30.554Z,63.07
2022-10-11T22:21:33.278Z,65.43
2022-10-11T22:26:35.970Z,58.16
2022-10-11T22:31:38.715Z,57.56
2022-10-11T22:36:41.391Z,61.17
2022-10-11T22:41:44.084Z,66.78
2022-10-11T22:46:46.834Z,61.00
2022-10-11T22:51:49.879Z,55.81
2022-10-11T22:56:52.539Z,58.77
2022-10-11T23:01:55.197Z,61.41
2022-10-11T23:07:01.303Z,67.11
2022-10-11T23:12:07.764Z,60.62
2022-10-11T23:17:10.547Z,55.65
2022-10-11T23:22:13.329Z,58.65
2022-10-11T23:27:16.115Z,60.41
2022-10-11T23:32:18.799Z,66.54
2022-10-11T23:37:21.582Z,61.07
2022-10-11T23:42:24.217Z,55.92
2022-10-11T23:47:26.863Z,58.21
2022-10-11T23:52:29.544Z,60.77
2022-10-11T23:57:32.199Z,67.69
